Frederike Selmer — V7QY8 — position and weather

sailwx.info

Track history (hours):
 
Tides and Currents Weather Stations Pressure Air Temp Water Temp Dewpoint Dewpoint Depression Visibility Wind Speed Wind Dir Waves Ship Positions

Frederike Selmer

Last reported at 2016-Jul-02 22:30 UTC. Time now 2016-Jul-31 03:33 UTC.
Position N 36°27' E 122°36'.
Warning: this ship's position is 28 days out of date.

Length 188 m; draft 10.4 m.

Type: Cargo ship. MMSI: 538007012.

Date/timePositionNaut miles runAvg speedWind from/ knotsBaromVisibWave heightAir tempDewpointWater temp
2016-Jul-02 22:30N 36°27' E 122°36'1010.9
2016-Jul-02 21:32N 36°36' E 122°42'1010.2
2016-Jul-02 20:33N 36°45' E 122°47'1010.1
2016-Jul-02 19:32N 36°56' E 122°48'1010.3
2016-Jul-02 18:33N 37°06' E 122°48'1111.2
2016-Jul-02 17:34N 37°17' E 122°48'1212.1
2016-Jul-02 16:33N 37°29' E 122°45'1312.9
2016-Jul-02 15:33N 37°38' E 122°33'5312.8
2016-Jul-02 11:25N 38°09' E 121°39'1112.4
2016-Jul-02 10:34N 38°15' E 121°28'1312.8
2016-Jul-02 09:32N 38°23' E 121°15'1311.9
2016-Jul-02 08:29N 38°30' E 121°02'9 9.5
2016-Jul-02 07:32N 38°34' E 120°51'3411.1
2016-Jul-02 04:28N 38°42' E 120°09'1010.7
2016-Jul-02 03:33N 38°45' E 119°57'1110.5
2016-Jul-02 02:33N 38°48' E 119°44'1010.6
2016-Jul-02 01:34N 38°51' E 119°31'1210.8
2016-Jul-02 00:26N 38°56' E 119°17'  
2016-Jun-25 14:20N 39°13' E 118°60'5 6.0
2016-Jun-25 13:31N 39°09' E 119°04'8 8.5
2016-Jun-25 12:33N 39°02' E 119°10'2 0.5
2016-Jun-25 08:14N 39°00' E 119°08'0 0.0
2016-Jun-24 11:32N 39°01' E 119°08'0 0.1
2016-Jun-24 10:29N 39°01' E 119°08'0 0.0
2016-Jun-24 09:29N 39°01' E 119°08'0 0.0
2016-Jun-24 08:26N 39°01' E 119°08'106 5.1
2016-Jun-23 11:29N 38°31' E 121°19'8 8.8
2016-Jun-23 10:32N 38°33' E 121°29'9 8.9
2016-Jun-23 09:33N 38°40' E 121°35'9 9.4
2016-Jun-23 08:33N 38°47' E 121°42'  
Track history (hours):
 
Tides and Currents Weather Stations Pressure Air Temp Water Temp Dewpoint Dewpoint Depression Visibility Wind Speed Wind Dir Waves Ship Positions

Frederike Selmer

Last reported at 2016-Jul-02 22:30 UTC. Time now 2016-Jul-31 03:33 UTC.
Position N 36°27' E 122°36'.
Warning: this ship's position is 28 days out of date.

Length 188 m; draft 10.4 m.

Type: Cargo ship. MMSI: 538007012.

Date/timePositionNaut miles runAvg speedWind from/ knotsBaromVisibWave heightAir tempDewpointWater temp
2016-Jul-02 22:30N 36°27' E 122°36'1010.9
2016-Jul-02 21:32N 36°36' E 122°42'1010.2
2016-Jul-02 20:33N 36°45' E 122°47'1010.1
2016-Jul-02 19:32N 36°56' E 122°48'1010.3
2016-Jul-02 18:33N 37°06' E 122°48'1111.2
2016-Jul-02 17:34N 37°17' E 122°48'1212.1
2016-Jul-02 16:33N 37°29' E 122°45'1312.9
2016-Jul-02 15:33N 37°38' E 122°33'5312.8
2016-Jul-02 11:25N 38°09' E 121°39'1112.4
2016-Jul-02 10:34N 38°15' E 121°28'1312.8
2016-Jul-02 09:32N 38°23' E 121°15'1311.9
2016-Jul-02 08:29N 38°30' E 121°02'9 9.5
2016-Jul-02 07:32N 38°34' E 120°51'3411.1
2016-Jul-02 04:28N 38°42' E 120°09'1010.7
2016-Jul-02 03:33N 38°45' E 119°57'1110.5
2016-Jul-02 02:33N 38°48' E 119°44'1010.6
2016-Jul-02 01:34N 38°51' E 119°31'1210.8
2016-Jul-02 00:26N 38°56' E 119°17'  
2016-Jun-25 14:20N 39°13' E 118°60'5 6.0
2016-Jun-25 13:31N 39°09' E 119°04'8 8.5
2016-Jun-25 12:33N 39°02' E 119°10'2 0.5
2016-Jun-25 08:14N 39°00' E 119°08'0 0.0
2016-Jun-24 11:32N 39°01' E 119°08'0 0.1
2016-Jun-24 10:29N 39°01' E 119°08'0 0.0
2016-Jun-24 09:29N 39°01' E 119°08'0 0.0
2016-Jun-24 08:26N 39°01' E 119°08'106 5.1
2016-Jun-23 11:29N 38°31' E 121°19'8 8.8
2016-Jun-23 10:32N 38°33' E 121°29'9 8.9
2016-Jun-23 09:33N 38°40' E 121°35'9 9.4
2016-Jun-23 08:33N 38°47' E 121°42'  

Dump ship's entire track history